Aérodrome :
LOGIN :

S'inscrire | Disclaimer

   EN    FR    IT 

 










Légende :    VFR   VFR Marginal   IFR   IFR Intensif   IFR Très Intensif
Visi : 
Plafond : 
>= 8 km
>= 3000ft
5 à 8 km
1000 à 3000 ft
1500m à 5 km
500 à 1000 ft
800 à 1500m
200 à 500 ft
< 800m
< 200 ft
Symboles :   Orages  Brouillard  Fortes neiges  Fortes précipitations  Vent > 20 kt
SIGMETs :   Divers  Orages  Givrage  Turbulence  Onde Orograph.  Cendres Volcan.







- Altitude de l'aérodrome : 26 ft
- Code IATA : GLA
- Voir les cartes d'approche


EGPF - Glasgow

DERNIER METAR :
  • 210250Z AUTO 03001KT 9999 FEW036 M03/M03 Q1023

METARs EXPIRÉS :
  • 210220Z AUTO 04002KT 9999 NCD M03/M03 Q1024
  • 210150Z AUTO 03003KT 9999 NCD M02/M03 Q1024
  • 210120Z AUTO VRB02KT 9999 NCD M02/M03 Q1024
  • 210050Z AUTO 24003KT 9999 NCD M01/M03 Q1024
  • 210020Z AUTO VRB02KT 9999 NCD M01/M02 Q1024

TAF TAF EGPF
Valide du 21 à 00h jusqu'au 22 à 00h UTC


202259Z 2100/2124 26005KT 9999 SCT020
PROB30 2103/2106 4000 BR
BECMG 2109/2112 18010KT
TEMPO 2115/2118 21016G28KT 7000 RA BKN008
BECMG 2118/2121 27013KT
PROB30
TEMPO 2121/2124 7000 SHRA
ATIS : +44 141 887 7449
Pas de NOTAMs connus pour ce terrain.



MET'MAP, la Météo Aéronautique d'un coup d'oeil ! - Copyright ORBIFLY Décembre 2007 - Disclaimer

ORBIFLY MET'MAP TEAM :

Programmation & Développement : Alexandra Zaïnal
Conception & Développement : Baudouin d'Aumeries
Co-Programmation & Développement : Marc-Olivier Méhu
Soutien technique & logistique : Manuel Goepfert

Contact : metmap@orbifly.com




SOURCES & CREDITS :

   NOAA